Time,TemperatureF,DewpointF,PressureIn,WindDirection,WindDirectionDegrees,WindSpeedMPH,WindSpeedGustMPH,Humidity,HourlyPrecipIn,Conditions,Clouds,dailyrainin,SoftwareType,DateUTC
2013-09-06 00:10:00,48.5,46.0,30.12,NNW,336,0.0,-999.0,92,-99.99,,,0.00,weatherlink.com 1.10,2013-09-06 04:10:00,
2013-09-06 00:25:00,48.5,46.0,30.12,NNW,336,0.0,-999.0,92,-99.99,,,0.00,weatherlink.com 1.10,2013-09-06 04:25:00,
2013-09-06 00:40:00,48.2,46.0,30.12,NNW,336,0.0,-999.0,92,-99.99,,,0.00,weatherlink.com 1.10,2013-09-06 04:40:00,
2013-09-06 00:55:00,47.6,45.0,30.12,NNW,336,0.0,-999.0,92,-99.99,,,0.00,weatherlink.com 1.10,2013-09-06 04:55:00,
2013-09-06 01:10:00,47.1,45.0,30.13,NNW,336,0.0,-999.0,92,-99.99,,,0.00,weatherlink.com 1.10,2013-09-06 05:10:00,
2013-09-06 01:25:00,47.3,45.0,30.13,NNW,336,0.0,-999.0,92,-99.99,,,0.00,weatherlink.com 1.10,2013-09-06 05:25:00,
2013-09-06 01:40:00,47.1,45.0,30.13,NNW,336,0.0,-999.0,92,-99.99,,,0.00,weatherlink.com 1.10,2013-09-06 05:40:00,
2013-09-06 01:55:00,46.7,45.0,30.14,NNW,336,0.0,-999.0,92,-99.99,,,0.00,weatherlink.com 1.10,2013-09-06 05:55:00,
2013-09-06 02:10:00,46.1,44.0,30.14,NNW,336,0.0,-999.0,92,-99.99,,,0.00,weatherlink.com 1.10,2013-09-06 06:10:00,
2013-09-06 02:25:00,45.8,44.0,30.14,NNW,336,0.0,-999.0,92,-99.99,,,0.00,weatherlink.com 1.10,2013-09-06 06:25:00,
2013-09-06 02:40:00,45.8,44.0,30.14,NNW,336,0.0,-999.0,92,-99.99,,,0.00,weatherlink.com 1.10,2013-09-06 06:40:00,
2013-09-06 02:55:00,45.4,43.0,30.14,NNW,336,0.0,-999.0,92,-99.99,,,0.00,weatherlink.com 1.10,2013-09-06 06:55:00,
2013-09-06 03:10:00,44.9,43.0,30.14,NNW,336,0.0,-999.0,92,-99.99,,,0.00,weatherlink.com 1.10,2013-09-06 07:10:00,
2013-09-06 03:25:00,44.5,42.0,30.15,NNW,336,0.0,-999.0,92,-99.99,,,0.00,weatherlink.com 1.10,2013-09-06 07:25:00,
2013-09-06 03:40:00,44.3,42.0,30.15,NNW,336,0.0,-999.0,92,-99.99,,,0.00,weatherlink.com 1.10,2013-09-06 07:40:00,
2013-09-06 03:55:00,43.9,42.0,30.15,NNW,336,0.0,-999.0,92,-99.99,,,0.00,weatherlink.com 1.10,2013-09-06 07:55:00,
2013-09-06 04:10:00,43.3,41.0,30.15,NNW,336,0.0,-999.0,92,-99.99,,,0.00,weatherlink.com 1.10,2013-09-06 08:10:00,
2013-09-06 04:25:00,42.9,41.0,30.15,NNW,336,0.0,-999.0,92,-99.99,,,0.00,weatherlink.com 1.10,2013-09-06 08:25:00,
2013-09-06 04:40:00,42.6,41.0,30.16,NNW,336,0.0,-999.0,92,-99.99,,,0.00,weatherlink.com 1.10,2013-09-06 08:40:00,
2013-09-06 04:55:00,42.3,40.0,30.16,NNW,336,0.0,-999.0,92,-99.99,,,0.00,weatherlink.com 1.10,2013-09-06 08:55:00,
2013-09-06 05:10:00,42.3,41.0,30.17,NNW,336,0.0,-999.0,93,-99.99,,,0.00,weatherlink.com 1.10,2013-09-06 09:10:00,
2013-09-06 05:25:00,41.9,40.0,30.17,NNW,336,0.0,-999.0,92,-99.99,,,0.00,weatherlink.com 1.10,2013-09-06 09:25:00,
2013-09-06 05:40:00,41.6,40.0,30.17,NNW,336,0.0,-999.0,93,-99.99,,,0.00,weatherlink.com 1.10,2013-09-06 09:40:00,
2013-09-06 05:55:00,41.3,40.0,30.17,NNW,336,0.0,-999.0,93,-99.99,,,0.00,weatherlink.com 1.10,2013-09-06 09:55:00,
2013-09-06 06:10:00,41.1,39.0,30.18,NNW,336,0.0,-999.0,93,-99.99,,,0.00,weatherlink.com 1.10,2013-09-06 10:10:00,
2013-09-06 06:25:00,40.8,39.0,30.18,NNW,336,0.0,-999.0,92,-99.99,,,0.00,weatherlink.com 1.10,2013-09-06 10:25:00,
2013-09-06 06:40:00,40.5,39.0,30.18,NNW,336,0.0,-999.0,93,-99.99,,,0.00,weatherlink.com 1.10,2013-09-06 10:40:00,
2013-09-06 06:55:00,40.5,39.0,30.19,NNW,336,0.0,-999.0,93,-99.99,,,0.00,weatherlink.com 1.10,2013-09-06 10:55:00,
2013-09-06 07:10:00,40.3,39.0,30.19,NNW,336,0.0,-999.0,93,-99.99,,,0.00,weatherlink.com 1.10,2013-09-06 11:10:00,
2013-09-06 07:25:00,40.3,39.0,30.20,NNW,336,0.0,-999.0,93,-99.99,,,0.00,weatherlink.com 1.10,2013-09-06 11:25:00,
2013-09-06 07:40:00,40.5,39.0,30.21,NNW,336,0.0,-999.0,94,-99.99,,,0.00,weatherlink.com 1.10,2013-09-06 11:40:00,
2013-09-06 07:55:00,40.9,39.0,30.21,NNW,336,0.0,-999.0,93,-99.99,,,0.00,weatherlink.com 1.10,2013-09-06 11:55:00,
2013-09-06 08:10:00,41.8,40.0,30.21,NNW,336,0.0,-999.0,94,-99.99,,,0.00,weatherlink.com 1.10,2013-09-06 12:10:00,
2013-09-06 08:25:00,43.3,42.0,30.21,NNW,336,0.0,-999.0,94,-99.99,,,0.00,weatherlink.com 1.10,2013-09-06 12:25:00,
2013-09-06 08:40:00,44.6,43.0,30.21,NNW,336,0.0,-999.0,94,-99.99,,,0.00,weatherlink.com 1.10,2013-09-06 12:40:00,
2013-09-06 08:55:00,46.2,45.0,30.21,NNW,336,0.0,-999.0,94,-99.99,,,0.00,weatherlink.com 1.10,2013-09-06 12:55:00,
2013-09-06 09:10:00,47.7,46.0,30.20,NNW,336,0.0,-999.0,94,-99.99,,,0.00,weatherlink.com 1.10,2013-09-06 13:10:00,
2013-09-06 09:25:00,48.9,47.0,30.20,NNW,336,0.0,-999.0,94,-99.99,,,0.00,weatherlink.com 1.10,2013-09-06 13:25:00,
2013-09-06 09:40:00,49.6,48.0,30.20,South,169,0.0,-999.0,93,-99.99,,,0.00,weatherlink.com 1.10,2013-09-06 13:40:00,
2013-09-06 09:55:00,52.6,45.0,30.20,East,97,0.0,-999.0,76,-99.99,,,0.00,weatherlink.com 1.10,2013-09-06 13:55:00,
2013-09-06 10:10:00,55.6,43.0,30.19,ESE,112,0.0,-999.0,63,-99.99,,,0.00,weatherlink.com 1.10,2013-09-06 14:10:00,
2013-09-06 10:25:00,57.5,47.0,30.19,NW,320,0.0,-999.0,67,-99.99,,,0.00,weatherlink.com 1.10,2013-09-06 14:25:00,
2013-09-06 10:40:00,58.6,45.0,30.19,South,182,0.0,-999.0,60,-99.99,,,0.00,weatherlink.com 1.10,2013-09-06 14:40:00,
2013-09-06 10:55:00,60.1,46.0,30.19,SSW,199,0.0,-999.0,60,-99.99,,,0.00,weatherlink.com 1.10,2013-09-06 14:55:00,
2013-09-06 11:10:00,61.3,45.0,30.19,SW,223,0.0,-999.0,55,-99.99,,,0.00,weatherlink.com 1.10,2013-09-06 15:10:00,
2013-09-06 11:25:00,62.3,46.0,30.18,NW,322,0.0,-999.0,56,-99.99,,,0.00,weatherlink.com 1.10,2013-09-06 15:25:00,
2013-09-06 11:40:00,63.9,46.0,30.17,South,191,2.0,-999.0,53,-99.99,,,0.00,weatherlink.com 1.10,2013-09-06 15:40:00,
2013-09-06 11:55:00,64.2,46.0,30.17,SW,223,0.0,-999.0,52,-99.99,,,0.00,weatherlink.com 1.10,2013-09-06 15:55:00,
2013-09-06 12:10:00,65.2,43.0,30.17,East,79,0.0,-999.0,45,-99.99,,,0.00,weatherlink.com 1.10,2013-09-06 16:10:00,
2013-09-06 12:25:00,66.0,41.0,30.16,SE,141,6.0,-999.0,41,-99.99,,,0.00,weatherlink.com 1.10,2013-09-06 16:25:00,
2013-09-06 12:40:00,66.1,41.0,30.16,South,189,0.0,-999.0,40,-99.99,,,0.00,weatherlink.com 1.10,2013-09-06 16:40:00,
2013-09-06 12:55:00,67.4,45.0,30.15,East,92,0.0,-999.0,45,-99.99,,,0.00,weatherlink.com 1.10,2013-09-06 16:55:00,
2013-09-06 13:10:00,67.9,43.0,30.14,ESE,107,0.0,-999.0,41,-99.99,,,0.00,weatherlink.com 1.10,2013-09-06 17:10:00,
2013-09-06 13:25:00,68.1,44.0,30.14,North,1,0.0,-999.0,42,-99.99,,,0.00,weatherlink.com 1.10,2013-09-06 17:25:00,
2013-09-06 13:40:00,69.1,46.0,30.13,SSW,202,0.0,-999.0,43,-99.99,,,0.00,weatherlink.com 1.10,2013-09-06 17:40:00,
2013-09-06 13:55:00,68.6,44.0,30.13,SSW,202,0.0,-999.0,41,-99.99,,,0.00,weatherlink.com 1.10,2013-09-06 17:55:00,
2013-09-06 14:10:00,69.1,46.0,30.12,WSW,244,0.0,-999.0,43,-99.99,,,0.00,weatherlink.com 1.10,2013-09-06 18:10:00,
2013-09-06 14:25:00,69.9,46.0,30.12,East,95,0.0,-999.0,43,-99.99,,,0.00,weatherlink.com 1.10,2013-09-06 18:25:00,
2013-09-06 14:40:00,71.6,47.0,30.11,North,349,0.0,-999.0,41,-99.99,,,0.00,weatherlink.com 1.10,2013-09-06 18:40:00,
2013-09-06 14:55:00,72.3,47.0,30.10,North,349,0.0,-999.0,41,-99.99,,,0.00,weatherlink.com 1.10,2013-09-06 18:55:00,
2013-09-06 15:10:00,71.5,44.0,30.09,NW,318,0.0,-999.0,38,-99.99,,,0.00,weatherlink.com 1.10,2013-09-06 19:10:00,
2013-09-06 15:25:00,71.3,47.0,30.09,NNW,333,0.0,-999.0,42,-99.99,,,0.00,weatherlink.com 1.10,2013-09-06 19:25:00,
2013-09-06 15:40:00,71.5,43.0,30.09,ENE,72,0.0,-999.0,36,-99.99,,,0.00,weatherlink.com 1.10,2013-09-06 19:40:00,
2013-09-06 15:55:00,71.3,46.0,30.08,East,89,0.0,-999.0,40,-99.99,,,0.00,weatherlink.com 1.10,2013-09-06 19:55:00,
2013-09-06 16:10:00,72.0,45.0,30.07,East,90,0.0,-999.0,38,-99.99,,,0.00,weatherlink.com 1.10,2013-09-06 20:10:00,
2013-09-06 16:25:00,72.5,47.0,30.07,East,92,0.0,-999.0,41,-99.99,,,0.00,weatherlink.com 1.10,2013-09-06 20:25:00,
2013-09-06 16:40:00,73.3,45.0,30.06,East,99,0.0,-999.0,36,-99.99,,,0.00,weatherlink.com 1.10,2013-09-06 20:40:00,
2013-09-06 16:55:00,73.7,47.0,30.06,East,100,1.0,-999.0,39,-99.99,,,0.00,weatherlink.com 1.10,2013-09-06 20:55:00,
2013-09-06 17:10:00,73.5,44.0,30.06,ESE,112,2.0,-999.0,35,-99.99,,,0.00,weatherlink.com 1.10,2013-09-06 21:10:00,
2013-09-06 17:25:00,73.0,44.0,30.07,ESE,112,0.0,-999.0,36,-99.99,,,0.00,weatherlink.com 1.10,2013-09-06 21:25:00,
2013-09-06 17:40:00,72.3,45.0,30.06,South,191,0.0,-999.0,38,-99.99,,,0.00,weatherlink.com 1.10,2013-09-06 21:40:00,
2013-09-06 17:55:00,70.9,44.0,30.07,WSW,248,0.0,-999.0,38,-99.99,,,0.00,weatherlink.com 1.10,2013-09-06 21:55:00,
2013-09-06 18:25:00,68.3,51.0,30.08,WSW,246,0.0,-999.0,54,-99.99,,,0.00,weatherlink.com 1.10,2013-09-06 22:25:00,
2013-09-06 18:40:00,65.8,50.0,30.08,WSW,246,0.0,-999.0,57,-99.99,,,0.00,weatherlink.com 1.10,2013-09-06 22:40:00,
2013-09-06 18:55:00,62.9,50.0,30.07,WSW,246,0.0,-999.0,62,-99.99,,,0.00,weatherlink.com 1.10,2013-09-06 22:55:00,
2013-09-06 19:10:00,61.3,49.0,30.07,WSW,246,0.0,-999.0,64,-99.99,,,0.00,weatherlink.com 1.10,2013-09-06 23:10:00,
2013-09-06 19:25:00,59.9,49.0,30.07,WSW,246,0.0,-999.0,68,-99.99,,,0.00,weatherlink.com 1.10,2013-09-06 23:25:00,
2013-09-06 19:40:00,58.6,49.0,30.07,WSW,246,0.0,-999.0,70,-99.99,,,0.00,weatherlink.com 1.10,2013-09-06 23:40:00,
2013-09-06 19:55:00,57.6,48.0,30.07,WSW,246,0.0,-999.0,70,-99.99,,,0.00,weatherlink.com 1.10,2013-09-06 23:55:00,
2013-09-06 20:10:00,57.2,48.0,30.07,WSW,246,0.0,-999.0,72,-99.99,,,0.00,weatherlink.com 1.10,2013-09-07 00:10:00,
2013-09-06 20:25:00,56.3,48.0,30.08,WSW,246,0.0,-999.0,75,-99.99,,,0.00,weatherlink.com 1.10,2013-09-07 00:25:00,
2013-09-06 20:40:00,55.6,49.0,30.06,WSW,246,0.0,-999.0,78,-99.99,,,0.00,weatherlink.com 1.10,2013-09-07 00:40:00,
2013-09-06 20:55:00,55.1,49.0,30.06,WSW,246,0.0,-999.0,80,-99.99,,,0.00,weatherlink.com 1.10,2013-09-07 00:55:00,
2013-09-06 21:10:00,54.8,49.0,30.06,WSW,246,0.0,-999.0,82,-99.99,,,0.00,weatherlink.com 1.10,2013-09-07 01:10:00,
2013-09-06 21:25:00,54.5,50.0,30.06,WSW,246,0.0,-999.0,84,-99.99,,,0.00,weatherlink.com 1.10,2013-09-07 01:25:00,
2013-09-06 21:40:00,54.4,50.0,30.05,WSW,246,0.0,-999.0,85,-99.99,,,0.00,weatherlink.com 1.10,2013-09-07 01:40:00,
2013-09-06 21:55:00,54.2,50.0,30.05,WSW,246,0.0,-999.0,85,-99.99,,,0.00,weatherlink.com 1.10,2013-09-07 01:55:00,
2013-09-06 22:10:00,54.1,50.0,30.05,WSW,246,0.0,-999.0,86,-99.99,,,0.00,weatherlink.com 1.10,2013-09-07 02:10:00,
2013-09-06 22:25:00,53.8,50.0,30.04,WSW,246,0.0,-999.0,87,-99.99,,,0.00,weatherlink.com 1.10,2013-09-07 02:25:00,
2013-09-06 22:40:00,53.2,50.0,30.03,WSW,246,0.0,-999.0,88,-99.99,,,0.00,weatherlink.com 1.10,2013-09-07 02:40:00,
2013-09-06 22:55:00,52.6,49.0,30.02,WSW,246,0.0,-999.0,88,-99.99,,,0.00,weatherlink.com 1.10,2013-09-07 02:55:00,
2013-09-06 23:10:00,52.5,49.0,30.02,WSW,246,0.0,-999.0,89,-99.99,,,0.00,weatherlink.com 1.10,2013-09-07 03:10:00,
2013-09-06 23:25:00,52.0,49.0,30.02,WSW,246,0.0,-999.0,89,-99.99,,,0.00,weatherlink.com 1.10,2013-09-07 03:25:00,
2013-09-06 23:40:00,51.9,49.0,30.02,WSW,246,0.0,-999.0,90,-99.99,,,0.00,weatherlink.com 1.10,2013-09-07 03:40:00,
2013-09-06 23:55:00,51.7,49.0,30.02,WSW,246,0.0,-999.0,90,-99.99,,,0.00,weatherlink.com 1.10,2013-09-07 03:55:00,